createdAt,value
2023-04-17T00:00:47.943Z,15.1
2023-04-17T00:03:43.018Z,13.9
2023-04-17T00:06:31.692Z,15.3
2023-04-17T00:09:18.981Z,17
2023-04-17T00:12:06.991Z,16.3
2023-04-17T00:14:54.512Z,15.1
2023-04-17T00:17:41.906Z,14.2
2023-04-17T00:20:29.380Z,15.8
2023-04-17T00:23:16.680Z,17
2023-04-17T00:26:04.026Z,16
2023-04-17T00:28:51.431Z,14.7
2023-04-17T00:31:38.960Z,13.7
2023-04-17T00:34:26.516Z,14.8
2023-04-17T00:37:13.804Z,16.8
2023-04-17T00:40:01.260Z,16.2
2023-04-17T00:42:50.095Z,15
2023-04-17T00:45:40.703Z,13.9
2023-04-17T00:48:28.116Z,14.7
2023-04-17T00:51:15.655Z,16.5
2023-04-17T00:54:03.035Z,16.3
2023-04-17T00:56:52.229Z,14.9
2023-04-17T00:59:42.254Z,13.8
2023-04-17T01:02:30.320Z,14.7
2023-04-17T01:05:18.277Z,16.5
2023-04-17T01:08:06.316Z,16
2023-04-17T01:10:53.641Z,14.8
2023-04-17T01:13:41.303Z,13.7
2023-04-17T01:16:31.072Z,14.9
2023-04-17T01:19:18.485Z,16.3
2023-04-17T01:22:06.578Z,15.5
2023-04-17T01:24:53.999Z,14.2
2023-04-17T01:27:41.402Z,13.5
2023-04-17T01:30:28.704Z,15.1
2023-04-17T01:33:16.082Z,15.8
2023-04-17T01:36:03.432Z,14.8
2023-04-17T01:38:51.487Z,13.5
2023-04-17T01:41:38.817Z,13.6
2023-04-17T01:44:26.148Z,15.7
2023-04-17T01:47:13.538Z,15.7
2023-04-17T01:50:00.918Z,14.7
2023-04-17T01:52:49.932Z,13.5
2023-04-17T01:55:37.269Z,13.2
2023-04-17T01:58:24.579Z,15.4
2023-04-17T02:01:12.085Z,15.5
2023-04-17T02:03:59.875Z,14.3
2023-04-17T02:06:47.608Z,13.2
2023-04-17T02:09:35.163Z,14.1
2023-04-17T02:12:22.550Z,16.1
2023-04-17T02:15:09.907Z,15.5
2023-04-17T02:17:57.724Z,14.3
2023-04-17T02:20:46.314Z,13.5
2023-04-17T02:23:33.623Z,15.5
2023-04-17T02:26:21.000Z,16.6
2023-04-17T02:29:08.327Z,15.3
2023-04-17T02:31:55.556Z,14
2023-04-17T02:34:42.752Z,13.6
2023-04-17T02:37:30.086Z,15.8
2023-04-17T02:40:17.439Z,16
2023-04-17T02:43:04.879Z,14.6
2023-04-17T02:45:52.192Z,13.4
2023-04-17T02:48:40.016Z,14.2
2023-04-17T02:51:27.336Z,16
2023-04-17T02:54:14.656Z,15.4
2023-04-17T02:57:01.905Z,14.1
2023-04-17T02:59:49.264Z,13.4
2023-04-17T03:02:37.174Z,15.3
2023-04-17T03:05:24.960Z,15.7
2023-04-17T03:08:14.726Z,14.5
2023-04-17T03:11:01.966Z,13.4
2023-04-17T03:13:50.452Z,15
2023-04-17T03:16:37.819Z,16.2
2023-04-17T03:19:25.259Z,15
2023-04-17T03:22:13.363Z,13.8
2023-04-17T03:25:00.767Z,14.6
2023-04-17T03:27:48.562Z,16.1
2023-04-17T03:30:35.888Z,15.1
2023-04-17T03:33:23.186Z,13.9
2023-04-17T03:36:10.912Z,13.2
2023-04-17T03:38:58.231Z,15.1
2023-04-17T03:41:45.583Z,15.4
2023-04-17T03:44:32.871Z,14.3
2023-04-17T03:47:20.466Z,13
2023-04-17T03:50:07.953Z,13.8
2023-04-17T03:52:55.696Z,15.7
2023-04-17T03:55:43.062Z,15.2
2023-04-17T03:58:30.574Z,13.9
2023-04-17T04:01:17.938Z,12.9
2023-04-17T04:04:07.043Z,14.7
2023-04-17T04:06:54.818Z,16
2023-04-17T04:09:42.447Z,14.9
2023-04-17T04:12:29.948Z,13.6
2023-04-17T04:15:17.284Z,13.5
2023-04-17T04:18:05.001Z,15.6
2023-04-17T04:20:52.283Z,15.8
2023-04-17T04:23:39.875Z,14.5
2023-04-17T04:26:27.442Z,13.2
2023-04-17T04:29:14.843Z,14
2023-04-17T04:32:02.888Z,16
2023-04-17T04:34:54.237Z,15.4
2023-04-17T04:37:43.009Z,14
2023-04-17T04:40:30.903Z,13
2023-04-17T04:43:22.701Z,14.6
2023-04-17T04:46:10.489Z,16
2023-04-17T04:48:57.753Z,15
2023-04-17T04:51:45.376Z,13.6
2023-04-17T04:54:32.812Z,13.7
2023-04-17T04:57:20.217Z,15.7
2023-04-17T05:00:07.726Z,15.6
2023-04-17T05:02:58.123Z,14.2
2023-04-17T05:05:45.690Z,13
2023-04-17T05:08:34.969Z,13.8
2023-04-17T05:11:27.366Z,16
2023-04-17T05:14:14.877Z,15.5
2023-04-17T05:17:02.233Z,14.3
2023-04-17T05:19:50.468Z,13.1
2023-04-17T05:22:37.748Z,14
2023-04-17T05:25:25.196Z,15.9
2023-04-17T05:28:13.780Z,15.4
2023-04-17T05:31:02.870Z,14.1
2023-04-17T05:33:50.711Z,12.9
2023-04-17T05:36:38.106Z,14
2023-04-17T05:39:25.613Z,16.1
2023-04-17T05:42:13.005Z,15.4
2023-04-17T05:45:00.253Z,14.2
2023-04-17T05:47:47.680Z,13
2023-04-17T05:50:35.048Z,13.9
2023-04-17T05:53:22.521Z,15.9
2023-04-17T05:56:09.759Z,15.4
2023-04-17T05:58:57.152Z,14.1
2023-04-17T06:01:44.501Z,12.9
2023-04-17T06:04:32.022Z,13.9
2023-04-17T06:07:20.710Z,16.1
2023-04-17T06:10:08.281Z,15.7
2023-04-17T06:12:56.132Z,14.4
2023-04-17T06:15:45.452Z,13.3
2023-04-17T06:18:35.247Z,13.9
2023-04-17T06:21:23.050Z,15.9
2023-04-17T06:24:11.262Z,15.2
2023-04-17T06:26:58.534Z,13.9
2023-04-17T06:29:45.858Z,12.8
2023-04-17T06:32:33.405Z,13.9
2023-04-17T06:35:21.128Z,16.2
2023-04-17T06:38:08.487Z,15.7
2023-04-17T06:40:55.752Z,14.5
2023-04-17T06:43:43.193Z,13.4
2023-04-17T06:46:30.553Z,14.1
2023-04-17T06:49:18.070Z,16.3
2023-04-17T06:52:05.877Z,15.8
2023-04-17T06:54:53.426Z,14.5
2023-04-17T06:57:40.867Z,13.4
2023-04-17T07:00:28.296Z,13.6
2023-04-17T07:03:15.900Z,16
2023-04-17T07:06:03.521Z,16.2
2023-04-17T07:08:52.590Z,14.9
2023-04-17T07:11:41.755Z,13.7
2023-04-17T07:14:29.054Z,13.6
2023-04-17T07:17:16.651Z,15.9
2023-04-17T07:20:04.333Z,15.8
2023-04-17T07:22:53.815Z,14.7
2023-04-17T07:25:41.886Z,13.6
2023-04-17T07:28:29.280Z,14.4
2023-04-17T07:31:16.611Z,16.4
2023-04-17T07:34:04.032Z,15.7
2023-04-17T07:36:51.309Z,14.6
2023-04-17T07:39:39.076Z,13.6
2023-04-17T07:42:26.448Z,14.7
2023-04-17T07:45:13.822Z,16.4
2023-04-17T07:48:01.324Z,15.6
2023-04-17T07:50:48.986Z,14.5
2023-04-17T07:53:36.333Z,13.6
2023-04-17T07:56:23.759Z,15.2
2023-04-17T07:59:13.049Z,16.3
2023-04-17T08:02:01.585Z,15.5
2023-04-17T08:04:49.135Z,14.3
2023-04-17T08:07:36.793Z,13.4
2023-04-17T08:10:24.730Z,14.5
2023-04-17T08:13:13.028Z,16.6
2023-04-17T08:16:00.387Z,16.3
2023-04-17T08:18:48.875Z,15.2
2023-04-17T08:21:36.225Z,14.2
2023-04-17T08:24:23.531Z,14
2023-04-17T08:27:10.841Z,16.2
2023-04-17T08:29:59.718Z,16.3
2023-04-17T08:32:47.871Z,15.4
2023-04-17T08:35:36.768Z,14.4
2023-04-17T08:38:24.065Z,13.7
2023-04-17T08:41:13.979Z,15.4
2023-04-17T08:44:06.720Z,17
2023-04-17T08:46:54.097Z,16.2
2023-04-17T08:49:42.874Z,15.2
2023-04-17T08:52:31.823Z,14.2
2023-04-17T08:55:19.722Z,13.8
2023-04-17T08:58:10.034Z,16.1
2023-04-17T09:00:59.011Z,16.7
2023-04-17T09:03:54.331Z,15.8
2023-04-17T09:06:41.871Z,14.8
2023-04-17T09:09:38.901Z,14
2023-04-17T09:12:42.511Z,15.5
2023-04-17T09:15:45.292Z,16.5
2023-04-17T09:18:49.344Z,15.4
2023-04-17T09:21:36.829Z,14.5
2023-04-17T09:24:24.261Z,13.9
2023-04-17T09:27:19.349Z,15.7
2023-04-17T09:30:08.295Z,16.5
2023-04-17T09:32:56.092Z,15.8
2023-04-17T09:35:49.498Z,14.8
2023-04-17T09:38:36.815Z,14.1
2023-04-17T09:41:25.272Z,15.1
2023-04-17T09:44:14.230Z,16.7
2023-04-17T09:47:11.287Z,16.2
2023-04-17T09:50:02.372Z,15.2
2023-04-17T09:52:52.576Z,14.4
2023-04-17T09:55:41.142Z,14.9
2023-04-17T09:58:29.355Z,16.8
2023-04-17T10:01:17.606Z,16.3
2023-04-17T10:04:05.768Z,15.4
2023-04-17T10:06:53.732Z,14.6
2023-04-17T10:09:42.631Z,14.1
2023-04-17T10:12:30.794Z,16.3
2023-04-17T10:15:18.038Z,17.7
2023-04-17T10:18:07.057Z,16.9
2023-04-17T10:21:10.888Z,15.8
2023-04-17T10:24:07.530Z,14.9
2023-04-17T10:27:10.817Z,14.3
2023-04-17T10:30:30.048Z,16.6
2023-04-17T10:33:49.290Z,16.5
2023-04-17T10:36:37.800Z,15.4
2023-04-17T10:39:34.578Z,14.7
2023-04-17T10:42:41.620Z,14.1
2023-04-17T10:45:48.206Z,16.2
2023-04-17T10:48:41.590Z,17.3
2023-04-17T10:51:35.025Z,16.7
2023-04-17T10:54:27.696Z,15.9
2023-04-17T10:57:17.986Z,15.3
2023-04-17T11:00:38.590Z,15.1
2023-04-17T11:03:36.450Z,17
2023-04-17T11:06:26.205Z,16.7
2023-04-17T11:09:16.422Z,15.9
2023-04-17T11:12:06.708Z,15.4
2023-04-17T11:14:54.063Z,14.9
2023-04-17T11:17:47.728Z,16.2
2023-04-17T11:20:35.059Z,17.3
2023-04-17T11:23:22.859Z,17.1
2023-04-17T11:26:14.565Z,16.7
2023-04-17T11:29:03.517Z,16.3
2023-04-17T11:31:58.914Z,15.9
2023-04-17T11:34:46.345Z,16.9
2023-04-17T11:37:33.803Z,17.6
2023-04-17T11:40:21.375Z,17.2
2023-04-17T11:43:08.941Z,16.7
2023-04-17T11:45:57.350Z,16.2
2023-04-17T11:48:46.489Z,15.8
2023-04-17T11:51:35.244Z,15.5
2023-04-17T11:54:23.283Z,16.4
2023-04-17T11:57:11.731Z,17
2023-04-17T11:59:59.901Z,16.6
2023-04-17T12:02:58.115Z,16
2023-04-17T12:05:47.178Z,15.5
2023-04-17T12:08:44.810Z,15.1
2023-04-17T12:11:34.896Z,14.8
2023-04-17T12:14:22.959Z,16
2023-04-17T12:17:11.524Z,16.8
2023-04-17T12:19:58.828Z,16.4
2023-04-17T12:22:48.722Z,15.9
2023-04-17T12:25:35.984Z,15.5
2023-04-17T12:28:23.873Z,15.3
2023-04-17T12:31:11.304Z,15.2
2023-04-17T12:33:58.716Z,16.9
2023-04-17T12:36:46.145Z,17.5
2023-04-17T12:39:35.153Z,16.9
2023-04-17T12:42:22.523Z,16.3
2023-04-17T12:45:09.975Z,15.7
2023-04-17T12:47:57.564Z,15.3
2023-04-17T12:50:44.871Z,15
2023-04-17T12:53:32.311Z,14.8
2023-04-17T12:56:20.289Z,15.8
2023-04-17T12:59:08.330Z,16.7
2023-04-17T13:01:55.942Z,16.2
2023-04-17T13:04:43.376Z,15.8
2023-04-17T13:07:31.841Z,15.3
2023-04-17T13:10:19.510Z,15
2023-04-17T13:13:07.588Z,14.8
2023-04-17T13:15:55.556Z,14.6
2023-04-17T13:18:43.560Z,16.3
2023-04-17T13:21:30.965Z,17.6
2023-04-17T13:24:18.309Z,17.8
2023-04-17T13:27:06.117Z,18
2023-04-17T13:29:54.546Z,18
2023-04-17T13:32:42.098Z,17.9
2023-04-17T13:35:29.573Z,17.8
2023-04-17T13:38:17.009Z,17.6
2023-04-17T13:41:04.385Z,17.2
2023-04-17T13:43:51.839Z,16.9
2023-04-17T13:46:40.123Z,16.6
2023-04-17T13:49:28.651Z,16.3
2023-04-17T13:52:16.389Z,16.1
2023-04-17T13:55:03.955Z,16
2023-04-17T13:57:56.310Z,15.8
2023-04-17T14:00:44.184Z,15.8
2023-04-17T14:03:31.915Z,16
2023-04-17T14:06:19.647Z,16.1
2023-04-17T14:09:07.970Z,16
2023-04-17T14:11:56.488Z,15.9
2023-04-17T14:14:44.912Z,15.8
2023-04-17T14:17:32.781Z,15.5
2023-04-17T14:20:22.641Z,15.4
2023-04-17T14:23:10.619Z,15.3
2023-04-17T14:25:58.597Z,15.2
2023-04-17T14:28:46.771Z,15.1
2023-04-17T14:31:34.407Z,15.1
2023-04-17T14:34:22.277Z,15.2
2023-04-17T14:37:10.089Z,15.1
2023-04-17T14:39:58.214Z,15.1
2023-04-17T14:42:54.236Z,14.9
2023-04-17T14:45:42.397Z,14.8
2023-04-17T14:48:32.637Z,14.8
2023-04-17T14:54:09.850Z,14.6
2023-04-17T14:56:57.446Z,14.5
2023-04-17T14:59:46.101Z,14.5
2023-04-17T15:02:34.041Z,14.5
2023-04-17T15:05:23.475Z,14.5
2023-04-17T15:08:11.786Z,14.5
2023-04-17T15:10:59.319Z,14.5
2023-04-17T15:13:47.248Z,16.1
2023-04-17T15:16:34.876Z,16.5
2023-04-17T15:19:22.717Z,16.2
2023-04-17T15:22:10.595Z,15.8
2023-04-17T15:24:58.375Z,15.4
2023-04-17T15:27:46.036Z,15.1
2023-04-17T15:30:34.426Z,14.8
2023-04-17T15:33:22.114Z,14.5
2023-04-17T15:36:09.757Z,14.4
2023-04-17T15:38:57.328Z,14.2
2023-04-17T15:41:45.547Z,14.1
2023-04-17T15:44:34.461Z,14
2023-04-17T15:47:22.718Z,14
2023-04-17T15:50:10.497Z,16.3
2023-04-17T15:52:58.391Z,17.1
2023-04-17T15:55:46.048Z,16.7
2023-04-17T15:58:34.016Z,16.1
2023-04-17T16:01:21.910Z,15.6
2023-04-17T16:04:09.890Z,15.2
2023-04-17T16:06:57.508Z,14.9
2023-04-17T16:09:45.203Z,14.7
2023-04-17T16:12:32.986Z,14.4
2023-04-17T16:15:23.285Z,14.2
2023-04-17T16:18:10.974Z,14
2023-04-17T16:20:58.782Z,13.8
2023-04-17T16:23:46.314Z,13.7
2023-04-17T16:26:34.272Z,13.6
2023-04-17T16:29:22.026Z,13.8
2023-04-17T16:32:09.870Z,16.2
2023-04-17T16:34:58.910Z,16.5
2023-04-17T16:37:47.007Z,15.8
2023-04-17T16:40:34.555Z,15.2
2023-04-17T16:43:22.087Z,15
2023-04-17T16:46:20.599Z,15
2023-04-17T16:49:12.666Z,15.1
2023-04-17T16:52:00.488Z,15.3
2023-04-17T16:54:48.733Z,15.7
2023-04-17T16:57:36.327Z,16
2023-04-17T17:00:25.309Z,16.1
2023-04-17T17:03:13.607Z,15.8
2023-04-17T17:06:01.796Z,15.3
2023-04-17T17:08:53.085Z,14.9
2023-04-17T17:11:44.240Z,14.5
2023-04-17T17:14:32.446Z,14.1
2023-04-17T17:17:20.106Z,13.8
2023-04-17T17:20:08.400Z,13.6
2023-04-17T17:22:57.261Z,13.3
2023-04-17T17:25:45.179Z,13.1
2023-04-17T17:28:32.861Z,14.2
2023-04-17T17:31:21.339Z,16.2
2023-04-17T17:37:04.011Z,15.1
2023-04-17T17:39:51.845Z,14.3
2023-04-17T17:42:39.488Z,13.7
2023-04-17T17:45:27.203Z,13.3
2023-04-17T17:48:15.060Z,12.8
2023-04-17T17:51:04.919Z,12.5
2023-04-17T17:53:52.736Z,13.6
2023-04-17T17:56:40.442Z,15.6
2023-04-17T17:59:28.108Z,15.3
2023-04-17T18:02:15.823Z,14.5
2023-04-17T18:05:03.918Z,13.7
2023-04-17T18:07:52.010Z,13.1
2023-04-17T18:10:39.606Z,12.7
2023-04-17T18:13:27.272Z,13.2
2023-04-17T18:16:15.023Z,16
2023-04-17T18:19:02.876Z,16
2023-04-17T18:21:51.350Z,15.1
2023-04-17T18:24:39.388Z,14.2
2023-04-17T18:27:27.182Z,13.5
2023-04-17T18:30:15.662Z,12.9
2023-04-17T18:33:03.254Z,12.4
2023-04-17T18:35:50.999Z,13.5
2023-04-17T18:38:38.718Z,15.6
2023-04-17T18:41:26.351Z,15.2
2023-04-17T18:44:14.361Z,14.3
2023-04-17T18:47:02.216Z,13.5
2023-04-17T18:49:49.900Z,12.9
2023-04-17T18:52:37.937Z,12.5
2023-04-17T18:55:25.830Z,14.4
2023-04-17T18:58:13.713Z,15.1
2023-04-17T19:01:01.202Z,14.4
2023-04-17T19:03:50.739Z,13.6
2023-04-17T19:06:38.358Z,12.9
2023-04-17T19:09:25.898Z,12.4
2023-04-17T19:12:13.975Z,13.4
2023-04-17T19:15:01.579Z,15.5
2023-04-17T19:17:49.892Z,15.1
2023-04-17T19:20:37.564Z,14.2
2023-04-17T19:23:26.898Z,13.3
2023-04-17T19:26:14.419Z,12.6
2023-04-17T19:29:02.071Z,12
2023-04-17T19:31:49.922Z,12.9
2023-04-17T19:34:37.235Z,14.8
2023-04-17T19:37:24.685Z,14.5
2023-04-17T19:40:23.741Z,13.5
2023-04-17T19:43:12.313Z,12.6
2023-04-17T19:45:59.748Z,12
2023-04-17T19:48:47.162Z,11.6
2023-04-17T19:51:36.749Z,13.6
2023-04-17T19:54:24.339Z,14.7
2023-04-17T19:57:12.487Z,14
2023-04-17T20:00:00.207Z,13
2023-04-17T20:02:48.747Z,12.1
2023-04-17T20:05:36.197Z,11.5
2023-04-17T20:08:23.656Z,12.5
2023-04-17T20:11:11.543Z,14.5
2023-04-17T20:14:01.325Z,14.2
2023-04-17T20:16:49.142Z,13.2
2023-04-17T20:19:36.501Z,12.4
2023-04-17T20:22:23.942Z,11.7
2023-04-17T20:25:11.295Z,12
2023-04-17T20:27:59.205Z,14.4
2023-04-17T20:30:47.388Z,14.7
2023-04-17T20:33:35.186Z,13.6
2023-04-17T20:36:22.641Z,12.7
2023-04-17T20:39:11.449Z,11.9
2023-04-17T20:41:59.272Z,11.8
2023-04-17T20:44:46.892Z,13.9
2023-04-17T20:47:34.953Z,14.1
2023-04-17T20:50:23.188Z,13.2
2023-04-17T20:53:10.792Z,12.5
2023-04-17T20:55:59.016Z,11.7
2023-04-17T20:58:46.584Z,11.4
2023-04-17T21:01:34.590Z,13.3
2023-04-17T21:04:22.108Z,14.1
2023-04-17T21:07:09.585Z,13.2
2023-04-17T21:09:57.020Z,12.4
2023-04-17T21:12:44.328Z,11.7
2023-04-17T21:15:31.777Z,11.5
2023-04-17T21:18:19.117Z,13.7
2023-04-17T21:21:06.853Z,14.1
2023-04-17T21:23:54.272Z,13.1
2023-04-17T21:26:41.552Z,12.3
2023-04-17T21:29:28.923Z,11.6
2023-04-17T21:32:16.259Z,12.1
2023-04-17T21:35:03.576Z,13.8
2023-04-17T21:37:52.014Z,13.6
2023-04-17T21:40:48.262Z,12.8
2023-04-17T21:43:38.063Z,11.9
2023-04-17T21:46:25.440Z,11.2
2023-04-17T21:49:12.786Z,12.1
2023-04-17T21:52:00.368Z,14
2023-04-17T21:54:47.651Z,13.5
2023-04-17T21:57:35.099Z,12.7
2023-04-17T22:00:23.940Z,11.8
2023-04-17T22:03:11.842Z,11.2
2023-04-17T22:05:59.271Z,12.1
2023-04-17T22:08:46.598Z,13.9
2023-04-17T22:11:33.909Z,13.6
2023-04-17T22:14:23.234Z,12.7
2023-04-17T22:17:10.573Z,11.9
2023-04-17T22:19:57.994Z,11.2
2023-04-17T22:22:45.321Z,10.7
2023-04-17T22:27:07.645Z,12.9
2023-04-17T22:31:30.206Z,13.1
2023-04-17T22:35:52.420Z,11.7
2023-04-17T22:40:14.913Z,10.7
2023-04-17T22:44:37.310Z,12.8
2023-04-17T22:48:59.635Z,13
2023-04-17T22:53:22.055Z,11.7
2023-04-17T22:57:44.488Z,10.6
2023-04-17T23:02:07.060Z,12.9
2023-04-17T23:06:29.926Z,13
2023-04-17T23:10:52.304Z,11.7
2023-04-17T23:13:44.260Z,11
2023-04-17T23:16:31.803Z,10.4
2023-04-17T23:19:19.078Z,11.7
2023-04-17T23:22:07.231Z,13.9
2023-04-17T23:24:55.101Z,13.5
2023-04-17T23:27:42.659Z,12.3
2023-04-17T23:30:30.104Z,11.5
2023-04-17T23:33:17.543Z,10.8
2023-04-17T23:36:04.848Z,11.9
2023-04-17T23:38:53.067Z,13.9
2023-04-17T23:41:40.398Z,13.4
2023-04-17T23:44:27.816Z,12.5
2023-04-17T23:47:15.137Z,11.6
2023-04-17T23:50:02.720Z,10.9
2023-04-17T23:52:52.175Z,12
2023-04-17T23:55:39.646Z,14.1
2023-04-17T23:58:26.973Z,13.6
